createdAt,value
2017-11-12T11:00:03.616Z,-45
2017-11-12T11:02:46.037Z,-49
2017-11-12T11:05:28.512Z,-43
2017-11-12T11:08:11.216Z,-43
2017-11-12T11:10:54.737Z,-45
2017-11-12T11:13:38.458Z,-46
2017-11-12T11:16:21.198Z,-43
2017-11-12T11:19:02.953Z,-44
2017-11-12T11:21:45.684Z,-44
2017-11-12T11:24:28.100Z,-43
2017-11-12T11:27:10.751Z,-44
2017-11-12T11:29:53.263Z,-44
2017-11-12T11:32:36.892Z,-43
2017-11-12T11:35:19.419Z,-43
2017-11-12T11:38:01.853Z,-44
2017-11-12T11:40:43.573Z,-45
2017-11-12T11:43:26.156Z,-45
2017-11-12T11:46:07.817Z,-45
2017-11-12T11:48:51.451Z,-44
2017-11-12T11:51:33.529Z,-44
2017-11-12T11:54:16.714Z,-45
2017-11-12T11:56:58.393Z,-44
2017-11-12T11:59:41.040Z,-44
2017-11-12T12:02:22.701Z,-45
2017-11-12T12:05:05.303Z,-44
2017-11-12T12:07:47.026Z,-44
2017-11-12T12:10:29.709Z,-46
2017-11-12T12:56:53.843Z,-48
2017-11-12T12:59:38.228Z,-47
2017-11-12T13:02:21.931Z,-55
2017-11-12T13:05:06.640Z,-51
2017-11-12T13:07:50.213Z,-50
2017-11-12T13:10:34.940Z,-51
2017-11-12T13:13:18.613Z,-50
2017-11-12T13:16:03.152Z,-48
2017-11-12T13:18:46.848Z,-51
2017-11-12T13:21:31.405Z,-52
2017-11-12T13:24:14.920Z,-54
2017-11-12T13:26:58.672Z,-55
2017-11-12T13:29:42.892Z,-52
2017-11-12T13:32:27.944Z,-51
2017-11-12T13:35:11.788Z,-49
2017-11-12T13:37:56.292Z,-51
2017-11-12T13:40:39.916Z,-53
2017-11-12T13:43:23.596Z,-49
2017-11-12T13:46:07.257Z,-49
2017-11-12T13:48:51.800Z,-48
2017-11-12T13:51:35.723Z,-49
2017-11-12T13:54:20.291Z,-49
2017-11-12T13:57:03.937Z,-51
2017-11-12T13:59:48.541Z,-52
2017-11-12T14:02:39.523Z,-51
2017-11-12T14:05:25.042Z,-49
2017-11-12T14:08:07.372Z,-51
2017-11-12T14:10:50.642Z,-48
2017-11-12T14:13:32.121Z,-49
2017-11-12T14:16:14.766Z,-50
2017-11-12T14:18:42.304Z,-51
2017-11-12T14:21:25.518Z,-51
2017-11-12T14:24:07.932Z,-51
2017-11-12T14:26:50.489Z,-51
2017-11-12T14:29:31.905Z,-51
2017-11-12T14:32:14.308Z,-52
2017-11-12T14:34:55.926Z,-53
2017-11-12T14:37:38.566Z,-54
2017-11-12T14:40:20.146Z,-53
2017-11-12T14:43:03.700Z,-51
2017-11-12T14:45:45.509Z,-55
2017-11-12T14:48:28.988Z,-49
2017-11-12T14:51:10.665Z,-52
2017-11-12T14:53:53.298Z,-49
2017-11-12T14:56:35.073Z,-51
2017-11-12T14:59:18.521Z,-52
2017-11-12T15:02:12.441Z,-48
2017-11-12T15:04:55.829Z,-46
2017-11-12T15:07:37.492Z,-47
2017-11-12T15:10:21.456Z,-47
2017-11-12T15:13:03.290Z,-46
2017-11-12T15:15:45.826Z,-46
2017-11-12T15:18:27.442Z,-48
2017-11-12T15:21:09.937Z,-49
2017-11-12T15:23:52.782Z,-48
2017-11-12T15:26:36.385Z,-50
2017-11-12T15:29:17.965Z,-50
2017-11-12T15:32:00.646Z,-53
2017-11-12T15:34:43.573Z,-53
2017-11-12T15:37:26.254Z,-55
2017-11-12T15:40:08.079Z,-48
2017-11-12T15:42:50.722Z,-49
2017-11-12T15:45:34.369Z,-55
2017-11-12T15:48:19.299Z,-54
2017-11-12T15:51:02.987Z,-50
2017-11-12T15:53:32.104Z,-49
